Time;durP1;ratioP1;P1;durP2;ratioP2;P2;SDS_P1;SDS_P2;PMS_P1;PMS_P2;Temp;Humidity;BMP_temperature;BMP_pressure;BME280_temperature;BME280_humidity;BME280_pressure;Samples;Min_cycle;Max_cycle;Signal;HPM_P1;HPM_P2
2021/06/30 00:00:24;;;;;;;22.20;20.20;;;21.10;99.90;;;;;;5070460;28;20233;-54
2021/06/30 00:02:49;;;;;;;22.30;20.20;;;21.20;99.90;;;;;;5072511;28;20268;-53
2021/06/30 00:05:15;;;;;;;16.00;14.60;;;21.20;99.90;;;;;;5072003;28;20271;-54
2021/06/30 00:07:41;;;;;;;17.57;16.00;;;21.20;99.90;;;;;;5065984;28;20203;-54
2021/06/30 00:10:08;;;;;;;19.70;17.73;;;21.10;99.90;;;;;;5073027;28;20433;-52
2021/06/30 00:12:34;;;;;;;19.47;17.63;;;21.10;99.90;;;;;;5072539;28;20186;-53
2021/06/30 00:15:00;;;;;;;16.47;15.07;;;21.20;99.90;;;;;;5069555;28;20442;-54
2021/06/30 00:17:26;;;;;;;15.40;14.20;;;21.20;99.90;;;;;;5072534;28;20182;-53
2021/06/30 00:19:51;;;;;;;13.97;12.63;;;21.30;99.90;;;;;;5070693;28;20536;-54
2021/06/30 00:22:17;;;;;;;11.83;10.73;;;21.20;99.90;;;;;;5071321;28;20288;-55
2021/06/30 00:24:42;;;;;;;11.87;10.70;;;21.10;99.90;;;;;;5071732;28;20198;-53
2021/06/30 00:27:08;;;;;;;11.10;10.20;;;21.10;99.90;;;;;;5072490;28;20179;-54
2021/06/30 00:29:34;;;;;;;10.20;8.67;;;21.00;99.90;;;;;;5071814;28;20306;-54
2021/06/30 00:31:59;;;;;;;8.13;7.40;;;20.80;99.90;;;;;;5069499;28;20191;-53
2021/06/30 00:34:25;;;;;;;8.03;7.30;;;20.90;99.90;;;;;;5070942;28;20226;-53
2021/06/30 00:36:50;;;;;;;6.00;5.50;;;20.90;99.90;;;;;;5070478;28;20194;-52
2021/06/30 00:39:16;;;;;;;7.20;6.60;;;20.80;99.90;;;;;;5072154;28;20188;-54
2021/06/30 00:41:45;;;;;;;6.73;6.00;;;20.70;99.90;;;;;;5070946;28;20721;-53
2021/06/30 00:44:12;;;;;;;5.43;4.80;;;20.60;99.90;;;;;;5072499;28;20203;-54
2021/06/30 00:46:38;;;;;;;5.53;4.60;;;20.60;99.90;;;;;;5072352;28;20445;-54
2021/06/30 00:49:06;;;;;;;5.57;4.67;;;20.50;99.90;;;;;;5071949;28;20519;-55
2021/06/30 00:51:32;;;;;;;5.30;4.90;;;20.50;99.90;;;;;;5070176;28;20183;-53
2021/06/30 00:53:57;;;;;;;5.87;5.37;;;20.60;99.90;;;;;;5071216;28;20786;-53
2021/06/30 00:56:26;;;;;;;4.33;3.90;;;20.60;99.90;;;;;;5071561;28;20656;-53
2021/06/30 00:58:54;;;;;;;3.93;3.70;;;20.60;99.90;;;;;;5069387;28;20215;-53
2021/06/30 01:01:21;;;;;;;4.43;4.03;;;20.60;99.90;;;;;;5070089;28;20460;-53
2021/06/30 01:03:51;;;;;;;4.47;4.07;;;20.60;99.90;;;;;;5071982;28;20469;-55
2021/06/30 01:06:17;;;;;;;5.10;4.60;;;20.50;99.90;;;;;;5071418;28;20510;-53
2021/06/30 01:08:43;;;;;;;5.00;3.90;;;20.40;99.90;;;;;;5070714;28;20473;-53
2021/06/30 01:11:10;;;;;;;4.03;3.70;;;20.30;99.90;;;;;;5071627;28;20516;-54
2021/06/30 01:13:36;;;;;;;4.07;3.70;;;20.20;99.90;;;;;;5070648;28;20445;-53
2021/06/30 01:16:02;;;;;;;4.20;3.90;;;19.90;99.90;;;;;;5071639;28;20429;-53
2021/06/30 01:18:30;;;;;;;5.30;4.57;;;19.90;99.90;;;;;;5071854;28;20453;-53
2021/06/30 01:20:57;;;;;;;4.70;4.30;;;19.80;99.90;;;;;;5071849;28;20553;-54
2021/06/30 01:23:23;;;;;;;4.43;4.03;;;19.90;99.90;;;;;;5071196;28;20471;-55
2021/06/30 01:25:49;;;;;;;4.20;3.90;;;19.80;99.90;;;;;;5069206;28;20457;-54
2021/06/30 01:28:16;;;;;;;4.73;4.17;;;19.70;99.90;;;;;;5071024;28;20206;-56
2021/06/30 01:30:45;;;;;;;4.10;3.80;;;19.60;99.90;;;;;;5069561;28;20469;-56
2021/06/30 01:33:11;;;;;;;5.03;3.83;;;19.60;99.90;;;;;;5068790;28;20438;-53
2021/06/30 01:35:36;;;;;;;4.00;3.70;;;19.50;99.90;;;;;;5068196;28;20452;-52
2021/06/30 01:38:03;;;;;;;5.63;4.07;;;19.50;99.90;;;;;;5069311;28;20449;-52
2021/06/30 01:40:29;;;;;;;4.70;4.30;;;19.30;99.90;;;;;;5071032;28;20187;-53
2021/06/30 01:42:57;;;;;;;4.80;4.17;;;19.30;99.90;;;;;;5070785;28;20525;-55
2021/06/30 01:45:22;;;;;;;4.70;4.30;;;19.40;99.90;;;;;;5070910;28;20445;-53
2021/06/30 01:47:49;;;;;;;3.67;3.37;;;19.40;99.90;;;;;;5068754;28;20480;-55
2021/06/30 01:50:15;;;;;;;8.07;3.57;;;19.40;99.90;;;;;;5068763;28;20270;-53
2021/06/30 01:52:42;;;;;;;4.20;3.80;;;19.10;99.90;;;;;;5067996;28;20439;-54
2021/06/30 01:55:09;;;;;;;5.00;4.40;;;19.20;99.90;;;;;;5070730;28;20499;-52
2021/06/30 01:57:42;;;;;;;3.17;2.97;;;19.20;99.90;;;;;;5070108;28;20453;-53
2021/06/30 02:00:10;;;;;;;4.60;3.50;;;19.30;99.90;;;;;;5070404;28;20452;-53
2021/06/30 02:02:37;;;;;;;3.20;3.00;;;19.20;99.90;;;;;;5069266;28;21792;-52
2021/06/30 02:05:09;;;;;;;3.20;2.97;;;19.20;99.90;;;;;;5069930;28;20441;-56
2021/06/30 02:07:35;;;;;;;5.00;3.67;;;19.30;99.90;;;;;;5059247;28;20924;-53
2021/06/30 02:10:06;;;;;;;4.03;3.23;;;19.20;99.90;;;;;;5070035;28;20448;-54
2021/06/30 02:12:31;;;;;;;13.40;3.40;;;19.20;99.90;;;;;;5070346;28;20440;-53
2021/06/30 02:14:57;;;;;;;3.57;3.23;;;19.30;99.90;;;;;;5070355;28;20926;-55
2021/06/30 02:17:23;;;;;;;3.83;3.53;;;19.20;99.90;;;;;;5069682;28;20255;-52
2021/06/30 02:19:49;;;;;;;3.40;3.10;;;19.30;99.90;;;;;;5068456;28;20229;-52
2021/06/30 02:22:16;;;;;;;3.40;3.20;;;19.20;99.90;;;;;;5068210;28;20175;-54
2021/06/30 02:24:42;;;;;;;3.63;3.00;;;19.20;99.90;;;;;;5068728;28;20433;-54
2021/06/30 02:27:08;;;;;;;4.50;3.30;;;19.20;99.90;;;;;;5070750;28;20953;-53
2021/06/30 02:29:33;;;;;;;4.13;3.70;;;19.10;99.90;;;;;;5071486;28;20473;-52
2021/06/30 02:31:59;;;;;;;5.50;3.47;;;19.10;99.90;;;;;;5069278;28;20537;-52
2021/06/30 02:34:25;;;;;;;4.00;3.63;;;19.10;99.90;;;;;;5070104;28;20183;-54
2021/06/30 02:36:51;;;;;;;4.00;3.70;;;19.10;99.90;;;;;;5070007;28;20194;-53
2021/06/30 02:39:16;;;;;;;3.40;2.73;;;19.10;99.90;;;;;;5070314;28;20446;-53
2021/06/30 02:41:42;;;;;;;3.23;2.83;;;19.10;99.90;;;;;;5070319;28;20228;-53
2021/06/30 02:44:07;;;;;;;3.87;3.00;;;19.00;99.90;;;;;;5068531;28;20195;-53
2021/06/30 02:46:33;;;;;;;5.63;3.70;;;19.10;99.90;;;;;;5070022;28;20195;-52
2021/06/30 02:48:58;;;;;;;4.23;3.30;;;19.00;99.90;;;;;;5068509;28;20345;-52
2021/06/30 02:51:24;;;;;;;3.47;3.17;;;19.00;99.90;;;;;;5070123;28;20215;-53
2021/06/30 02:53:49;;;;;;;3.43;3.13;;;19.00;99.90;;;;;;5065655;28;20186;-53
2021/06/30 02:56:15;;;;;;;3.30;3.00;;;19.00;99.90;;;;;;5070544;28;20229;-53
2021/06/30 02:58:40;;;;;;;4.07;3.27;;;19.10;99.90;;;;;;5069338;28;20191;-53
2021/06/30 03:01:06;;;;;;;6.00;4.10;;;19.00;99.90;;;;;;5072496;28;20191;-53
2021/06/30 03:03:31;;;;;;;3.70;3.40;;;19.10;99.90;;;;;;5071922;28;20175;-53
2021/06/30 03:05:58;;;;;;;3.43;3.13;;;19.20;99.90;;;;;;5072519;28;20195;-53
2021/06/30 03:08:24;;;;;;;3.67;3.47;;;19.20;99.90;;;;;;5073471;28;20285;-54
2021/06/30 03:10:49;;;;;;;3.00;2.70;;;19.20;99.90;;;;;;5072720;28;20529;-53
2021/06/30 03:13:15;;;;;;;4.60;3.50;;;19.20;99.90;;;;;;5073635;28;20175;-54
2021/06/30 03:15:40;;;;;;;4.00;3.40;;;19.20;99.90;;;;;;5071940;28;20675;-53
2021/06/30 03:18:06;;;;;;;3.60;3.30;;;19.30;99.90;;;;;;5070213;28;20277;-53
2021/06/30 03:20:31;;;;;;;5.23;3.23;;;19.40;99.90;;;;;;5073404;28;20191;-53
2021/06/30 03:22:57;;;;;;;4.77;2.83;;;19.40;99.90;;;;;;5073177;28;20289;-54
2021/06/30 03:25:22;;;;;;;3.23;3.03;;;19.50;99.90;;;;;;5071277;28;20597;-53
2021/06/30 03:27:48;;;;;;;3.00;2.80;;;19.40;99.90;;;;;;5070110;28;20664;-53
2021/06/30 03:30:14;;;;;;;3.27;3.07;;;19.40;99.90;;;;;;5072555;28;20323;-53
2021/06/30 03:32:40;;;;;;;3.90;3.00;;;19.50;99.90;;;;;;5071918;28;20180;-52
2021/06/30 03:35:07;;;;;;;3.40;3.10;;;19.60;99.90;;;;;;5072538;28;20630;-52
2021/06/30 03:37:32;;;;;;;2.80;2.60;;;19.50;99.90;;;;;;5070749;28;20232;-52
2021/06/30 03:39:58;;;;;;;3.10;2.70;;;19.50;99.90;;;;;;5070143;28;21408;-53
2021/06/30 03:42:23;;;;;;;3.00;2.80;;;19.40;99.90;;;;;;5073065;28;20678;-53
2021/06/30 03:44:49;;;;;;;3.37;3.07;;;19.20;99.90;;;;;;5071792;28;20241;-53
2021/06/30 03:47:15;;;;;;;5.00;3.30;;;19.20;99.90;;;;;;5070301;28;20632;-53
2021/06/30 03:49:40;;;;;;;3.53;3.27;;;19.20;99.90;;;;;;5072920;28;20203;-53
2021/06/30 03:52:06;;;;;;;3.10;2.80;;;19.20;99.90;;;;;;5071851;28;20176;-53
2021/06/30 03:54:32;;;;;;;3.30;3.10;;;19.20;99.90;;;;;;5071920;28;20187;-52
2021/06/30 03:56:57;;;;;;;4.10;3.70;;;19.10;99.90;;;;;;5071563;28;20184;-54
2021/06/30 03:59:23;;;;;;;2.87;2.67;;;19.20;99.90;;;;;;5071540;28;20180;-54
2021/06/30 04:01:50;;;;;;;3.27;3.00;;;19.10;99.90;;;;;;5072532;28;20331;-53
2021/06/30 04:04:17;;;;;;;3.60;3.10;;;19.10;99.90;;;;;;5072542;28;20655;-54
2021/06/30 04:06:43;;;;;;;3.57;3.27;;;19.10;99.90;;;;;;5072249;28;20930;-54
2021/06/30 04:09:09;;;;;;;3.50;3.20;;;19.10;99.90;;;;;;5072415;28;20552;-55
2021/06/30 04:11:34;;;;;;;2.87;2.67;;;19.10;99.90;;;;;;5071635;28;20180;-55
2021/06/30 04:14:00;;;;;;;4.60;3.77;;;19.10;99.90;;;;;;5071917;28;20179;-53
2021/06/30 04:16:26;;;;;;;4.10;3.23;;;19.20;99.90;;;;;;5071239;28;20180;-55
2021/06/30 04:18:52;;;;;;;3.57;3.27;;;19.20;99.90;;;;;;5072108;28;20433;-55
2021/06/30 04:21:18;;;;;;;3.17;2.97;;;19.20;99.90;;;;;;5071671;28;20206;-55
2021/06/30 04:23:43;;;;;;;3.80;3.50;;;19.20;99.90;;;;;;5072020;28;20922;-55
2021/06/30 04:26:09;;;;;;;3.97;3.57;;;19.20;99.90;;;;;;5071574;28;20184;-55
2021/06/30 04:28:35;;;;;;;4.40;4.00;;;19.10;99.90;;;;;;5071410;28;20268;-55
2021/06/30 04:31:01;;;;;;;4.03;3.10;;;19.10;99.90;;;;;;5071836;28;20252;-53
2021/06/30 04:33:30;;;;;;;5.60;3.50;;;19.20;99.90;;;;;;5071804;28;20473;-54
2021/06/30 04:35:56;;;;;;;4.40;3.23;;;19.20;99.90;;;;;;5071650;28;20648;-54
2021/06/30 04:38:24;;;;;;;4.23;3.90;;;19.20;99.90;;;;;;5069248;28;20480;-54
2021/06/30 04:40:50;;;;;;;4.37;3.97;;;19.20;99.90;;;;;;5066410;28;20636;-53
2021/06/30 04:43:15;;;;;;;3.53;3.23;;;19.20;99.90;;;;;;5066866;28;20498;-54
2021/06/30 04:45:41;;;;;;;3.60;3.30;;;19.10;99.90;;;;;;5071878;28;20286;-54
2021/06/30 04:48:06;;;;;;;3.60;3.30;;;19.10;99.90;;;;;;5065697;28;20203;-54
2021/06/30 04:50:32;;;;;;;3.80;3.50;;;19.10;99.90;;;;;;5071941;28;20175;-53
2021/06/30 04:52:57;;;;;;;4.27;3.80;;;19.20;99.90;;;;;;5069539;28;20197;-53
2021/06/30 04:55:23;;;;;;;3.20;2.80;;;19.30;99.90;;;;;;5069759;28;20289;-54
2021/06/30 04:57:48;;;;;;;4.00;3.70;;;19.40;99.90;;;;;;5071400;28;20370;-55
2021/06/30 05:00:14;;;;;;;4.30;3.90;;;19.40;99.90;;;;;;5071421;28;20204;-53
2021/06/30 05:02:40;;;;;;;3.93;3.63;;;19.40;99.90;;;;;;5070215;28;20190;-54
2021/06/30 05:05:06;;;;;;;3.23;2.93;;;19.40;99.90;;;;;;5071299;28;20930;-54
2021/06/30 05:07:31;;;;;;;3.83;3.47;;;19.50;99.90;;;;;;5071415;28;20210;-55
2021/06/30 05:09:57;;;;;;;3.23;3.03;;;19.50;99.90;;;;;;5071281;28;20471;-54
2021/06/30 05:12:22;;;;;;;3.60;3.30;;;19.40;99.90;;;;;;5070090;28;20666;-56
2021/06/30 05:14:48;;;;;;;3.80;3.33;;;19.40;99.90;;;;;;5071320;28;20255;-55
2021/06/30 05:17:13;;;;;;;3.90;3.60;;;19.50;99.90;;;;;;5069345;28;20177;-54
2021/06/30 05:19:39;;;;;;;6.60;3.70;;;19.40;99.90;;;;;;5071312;28;20271;-53
2021/06/30 05:22:05;;;;;;;6.50;3.80;;;19.30;99.90;;;;;;5070163;28;20530;-54
2021/06/30 05:24:31;;;;;;;3.40;3.20;;;19.10;99.90;;;;;;5070470;28;20262;-55
2021/06/30 05:26:57;;;;;;;4.60;4.20;;;19.00;99.90;;;;;;5069219;28;20432;-55
2021/06/30 05:29:22;;;;;;;4.53;3.47;;;19.10;99.90;;;;;;5069799;28;20873;-55
2021/06/30 05:31:48;;;;;;;4.20;3.80;;;19.20;99.90;;;;;;5070566;28;20190;-54
2021/06/30 05:34:14;;;;;;;3.47;3.17;;;19.30;99.90;;;;;;5069563;28;20301;-55
2021/06/30 05:36:40;;;;;;;4.77;3.23;;;19.40;99.90;;;;;;5068969;28;20259;-53
2021/06/30 05:39:06;;;;;;;4.37;3.80;;;19.40;99.90;;;;;;5070280;28;20650;-54
2021/06/30 05:41:32;;;;;;;3.67;3.37;;;19.50;99.90;;;;;;5070471;28;20441;-54
2021/06/30 05:43:57;;;;;;;3.33;3.03;;;19.50;99.90;;;;;;5070538;28;20187;-55
2021/06/30 05:46:23;;;;;;;4.10;2.87;;;19.60;99.90;;;;;;5069942;28;20457;-55
2021/06/30 05:52:04;;;;;;;3.40;3.10;;;19.70;88.00;;;;;;5037805;28;20649;-55
2021/06/30 05:54:29;;;;;;;3.80;3.40;;;19.70;93.60;;;;;;5070170;28;20467;-55
2021/06/30 05:56:55;;;;;;;3.43;3.17;;;19.80;37.30;;;;;;5070292;28;20456;-54
2021/06/30 05:59:20;;;;;;;3.27;3.07;;;19.80;39.10;;;;;;5070331;28;20654;-54
2021/06/30 06:01:46;;;;;;;3.07;2.87;;;19.80;34.80;;;;;;5070372;28;20720;-55
2021/06/30 06:04:11;;;;;;;3.10;2.90;;;19.80;28.00;;;;;;5070274;28;20191;-55
2021/06/30 06:06:37;;;;;;;2.57;2.47;;;19.80;18.50;;;;;;5070151;28;20194;-55
2021/06/30 06:09:03;;;;;;;3.17;2.87;;;19.80;7.90;;;;;;5067538;28;20203;-54
2021/06/30 06:11:28;;;;;;;4.10;3.70;;;19.60;13.10;;;;;;5069873;28;20183;-55
2021/06/30 06:13:54;;;;;;;3.23;2.67;;;19.60;16.10;;;;;;5070627;28;20658;-54
2021/06/30 06:16:22;;;;;;;5.60;3.50;;;19.70;12.40;;;;;;5070926;28;20179;-54
2021/06/30 06:18:49;;;;;;;3.53;3.33;;;19.70;23.90;;;;;;5069975;28;20449;-54
2021/06/30 06:21:15;;;;;;;3.23;2.87;;;19.90;21.30;;;;;;5069234;28;20555;-54
2021/06/30 06:23:41;;;;;;;5.20;3.10;;;20.00;10.70;;;;;;5069726;28;20442;-54
2021/06/30 06:26:07;;;;;;;2.93;2.73;;;20.10;5.30;;;;;;5070082;28;20455;-54
2021/06/30 06:28:33;;;;;;;3.43;3.13;;;20.20;1.00;;;;;;5070235;28;20211;-53
2021/06/30 06:31:00;;;;;;;4.07;3.57;;;20.20;1.00;;;;;;5069142;28;20429;-54
2021/06/30 06:33:25;;;;;;;3.60;3.17;;;20.30;1.00;;;;;;5071659;28;20486;-54
2021/06/30 06:35:51;;;;;;;3.60;3.30;;;20.20;1.00;;;;;;5073528;28;20908;-54
2021/06/30 06:38:17;;;;;;;4.43;3.60;;;20.20;1.00;;;;;;5073529;28;20231;-56
2021/06/30 06:40:43;;;;;;;3.40;2.83;;;20.20;1.00;;;;;;5071131;28;20179;-55
2021/06/30 06:43:09;;;;;;;3.50;3.20;;;20.30;1.00;;;;;;5073568;28;20233;-55
2021/06/30 06:45:35;;;;;;;3.20;3.00;;;20.50;1.00;;;;;;5073060;28;20220;-53
2021/06/30 06:48:01;;;;;;;4.90;3.60;;;20.40;1.00;;;;;;5072285;28;20527;-52
2021/06/30 06:50:28;;;;;;;3.03;2.83;;;20.60;1.00;;;;;;5072831;28;20982;-55
2021/06/30 06:52:53;;;;;;;5.03;3.53;;;20.60;1.00;;;;;;5072922;28;20441;-54
2021/06/30 06:55:19;;;;;;;4.30;2.97;;;20.50;1.00;;;;;;5073338;28;20780;-53
2021/06/30 06:57:45;;;;;;;3.90;2.80;;;20.50;1.00;;;;;;5073681;28;20187;-56
2021/06/30 07:00:11;;;;;;;8.60;3.90;;;20.50;1.00;;;;;;5073134;28;20606;-54
2021/06/30 07:02:37;;;;;;;4.10;3.70;;;20.50;1.00;;;;;;5073253;28;20837;-56
2021/06/30 07:05:04;;;;;;;3.63;3.33;;;20.50;1.00;;;;;;5073659;28;20445;-55
2021/06/30 07:07:30;;;;;;;3.70;3.40;;;20.60;1.00;;;;;;5072489;28;20232;-54
2021/06/30 07:09:56;;;;;;;4.43;3.70;;;20.50;1.00;;;;;;5073430;28;20445;-56
2021/06/30 07:12:22;;;;;;;4.80;4.03;;;20.40;1.00;;;;;;5073142;28;20438;-55
2021/06/30 07:14:48;;;;;;;3.93;3.53;;;20.30;1.00;;;;;;5072543;28;20182;-54
2021/06/30 07:17:13;;;;;;;5.03;4.57;;;20.40;1.00;;;;;;5072735;28;20437;-56
2021/06/30 07:19:40;;;;;;;4.47;4.07;;;20.40;1.00;;;;;;5072736;28;20191;-55
2021/06/30 07:22:05;;;;;;;6.10;3.40;;;20.40;1.00;;;;;;5073384;28;20637;-54
2021/06/30 07:24:31;;;;;;;4.17;3.87;;;20.50;1.00;;;;;;5073704;28;20441;-56
2021/06/30 07:26:56;;;;;;;4.10;3.80;;;20.30;1.00;;;;;;5072954;28;20187;-57
2021/06/30 07:29:23;;;;;;;6.90;3.90;;;20.50;1.00;;;;;;5073464;28;20614;-57
2021/06/30 07:31:48;;;;;;;3.83;3.53;;;20.50;1.00;;;;;;5072973;28;20575;-57
2021/06/30 07:34:14;;;;;;;4.50;4.07;;;20.50;1.00;;;;;;5072623;28;20449;-55
2021/06/30 07:36:40;;;;;;;4.40;4.00;;;20.50;1.00;;;;;;5072172;28;20704;-55
2021/06/30 07:39:07;;;;;;;5.83;4.00;;;23.10;1.00;;;;;;5073149;28;20439;-55
2021/06/30 07:41:33;;;;;;;4.17;3.87;;;20.50;1.00;;;;;;5071304;28;20186;-55
2021/06/30 07:44:00;;;;;;;3.70;3.40;;;20.50;1.00;;;;;;5072641;28;20486;-55
2021/06/30 07:46:26;;;;;;;4.13;3.83;;;20.50;1.00;;;;;;5073009;28;20217;-54
2021/06/30 07:48:52;;;;;;;4.10;3.80;;;20.50;1.00;;;;;;5072651;28;20831;-54
2021/06/30 07:51:19;;;;;;;4.30;3.90;;;20.50;1.00;;;;;;5072958;28;20465;-55
2021/06/30 07:53:44;;;;;;;4.20;3.63;;;20.50;1.00;;;;;;5073303;28;20591;-53
2021/06/30 07:56:11;;;;;;;4.47;4.07;;;20.50;1.00;;;;;;5073653;28;20440;-56
2021/06/30 07:58:39;;;;;;;3.97;3.60;;;20.60;1.00;;;;;;5073403;28;20257;-55
2021/06/30 08:01:04;;;;;;;4.00;3.70;;;20.50;1.00;;;;;;5072693;28;20449;-54
2021/06/30 08:03:30;;;;;;;3.60;3.30;;;20.50;1.00;;;;;;5072816;28;20922;-55
2021/06/30 08:05:55;;;;;;;3.97;3.67;;;20.50;1.00;;;;;;5072775;28;20199;-55
2021/06/30 08:08:21;;;;;;;3.93;3.13;;;20.70;1.00;;;;;;5072471;28;20196;-54
2021/06/30 08:10:48;;;;;;;3.40;3.10;;;20.60;1.00;;;;;;5072197;28;20647;-54
2021/06/30 08:13:13;;;;;;;3.40;3.10;;;20.70;1.00;;;;;;5072731;28;20259;-54
2021/06/30 08:15:39;;;;;;;4.07;3.77;;;20.70;1.00;;;;;;5072534;28;20497;-55
2021/06/30 08:18:05;;;;;;;3.30;3.10;;;20.70;1.00;;;;;;5072470;28;20187;-54
2021/06/30 08:20:30;;;;;;;3.90;3.50;;;20.80;1.00;;;;;;5072627;28;20188;-53
2021/06/30 08:22:56;;;;;;;4.87;3.30;;;20.70;1.00;;;;;;5072570;28;20264;-56
2021/06/30 08:25:24;;;;;;;5.03;3.73;;;21.10;1.00;;;;;;5072067;28;20526;-54
2021/06/30 08:27:50;;;;;;;3.87;3.30;;;20.60;1.00;;;;;;5070385;28;20262;-55
2021/06/30 08:30:15;;;;;;;2.80;2.60;;;20.60;1.00;;;;;;5071537;28;20910;-55
2021/06/30 08:32:43;;;;;;;3.23;3.00;;;20.70;1.00;;;;;;5071343;28;20228;-55
2021/06/30 08:35:10;;;;;;;3.87;3.27;;;20.80;1.00;;;;;;5071936;28;20176;-55
2021/06/30 08:37:40;;;;;;;3.53;3.00;;;20.80;1.00;;;;;;5071965;28;20442;-55
2021/06/30 08:40:08;;;;;;;3.77;3.50;;;20.90;1.00;;;;;;5072202;28;21005;-55
2021/06/30 08:42:33;;;;;;;3.40;3.10;;;21.00;1.00;;;;;;5072042;28;20477;-54
2021/06/30 08:44:59;;;;;;;4.50;3.30;;;21.00;1.00;;;;;;5070675;28;20469;-54
2021/06/30 08:47:26;;;;;;;5.97;3.30;;;20.80;1.00;;;;;;5070416;28;20180;-54
2021/06/30 08:49:52;;;;;;;3.73;3.40;;;20.90;1.00;;;;;;5068970;28;20679;-54
2021/06/30 08:52:18;;;;;;;5.43;3.67;;;20.80;1.00;;;;;;5071292;28;20491;-55
2021/06/30 08:54:45;;;;;;;4.83;3.73;;;20.80;1.00;;;;;;5071686;28;20455;-55
2021/06/30 08:57:12;;;;;;;3.70;3.23;;;20.80;1.00;;;;;;5070462;28;20508;-54
2021/06/30 08:59:37;;;;;;;3.93;3.57;;;20.80;1.00;;;;;;5071560;28;20457;-54
2021/06/30 09:02:04;;;;;;;4.00;3.53;;;21.00;1.00;;;;;;5070363;28;20452;-54
2021/06/30 09:04:29;;;;;;;3.00;2.80;;;21.10;1.00;;;;;;5071642;28;20518;-55
2021/06/30 09:06:55;;;;;;;4.27;3.30;;;21.10;1.00;;;;;;5071421;28;20441;-54
2021/06/30 09:09:20;;;;;;;3.80;3.33;;;21.40;1.00;;;;;;5071758;28;20203;-54
2021/06/30 09:11:55;;;;;;;5.23;3.60;;;21.50;1.00;;;;;;5071344;28;20179;-55
2021/06/30 09:14:36;;;;;;;5.10;3.33;;;21.60;1.00;;;;;;5071102;28;20732;-56
2021/06/30 09:19:51;;;;;;;3.13;2.93;;;21.50;1.00;;;;;;5070220;28;20420;-55
2021/06/30 09:22:19;;;;;;;4.80;3.23;;;21.90;1.00;;;;;;5071312;28;20787;-55
2021/06/30 09:24:45;;;;;;;4.27;2.53;;;22.30;1.00;;;;;;5068726;28;20521;-57
2021/06/30 09:27:13;;;;;;;3.07;2.77;;;22.30;1.00;;;;;;5071248;28;20437;-57
2021/06/30 09:29:41;;;;;;;3.43;2.93;;;22.00;1.00;;;;;;5070845;28;20530;-55
2021/06/30 09:32:09;;;;;;;3.23;3.03;;;21.90;1.00;;;;;;5070059;28;20472;-56
2021/06/30 09:34:35;;;;;;;3.00;2.80;;;21.90;1.00;;;;;;5070976;28;20962;-53
2021/06/30 09:37:02;;;;;;;4.30;3.03;;;21.90;1.00;;;;;;5071133;28;20430;-55
2021/06/30 09:39:36;;;;;;;4.60;3.17;;;21.90;1.00;;;;;;5071164;28;20258;-54
2021/06/30 09:42:13;;;;;;;3.90;2.90;;;21.80;1.00;;;;;;5070858;28;20444;-55
2021/06/30 09:44:41;;;;;;;3.30;3.10;;;21.70;1.00;;;;;;5070918;28;20444;-54
2021/06/30 09:47:08;;;;;;;3.23;3.00;;;21.70;1.00;;;;;;5070964;28;20533;-57
2021/06/30 09:49:36;;;;;;;3.50;2.47;;;21.90;1.00;;;;;;5070513;28;20472;-55
2021/06/30 09:52:11;;;;;;;3.30;3.00;;;21.90;1.00;;;;;;5070629;28;20522;-55
2021/06/30 09:54:38;;;;;;;4.67;2.93;;;22.10;1.00;;;;;;5070387;28;20452;-55
2021/06/30 09:57:10;;;;;;;2.90;2.70;;;22.20;1.00;;;;;;5069375;28;20451;-54
2021/06/30 09:59:38;;;;;;;3.07;2.83;;;22.00;1.00;;;;;;5070113;28;20457;-54
2021/06/30 10:02:04;;;;;;;4.73;2.70;;;22.10;1.00;;;;;;5070713;28;20542;-57
2021/06/30 10:04:35;;;;;;;3.03;2.83;;;22.10;1.00;;;;;;5069766;28;20528;-54
2021/06/30 10:07:09;;;;;;;2.80;2.50;;;22.20;1.00;;;;;;5070076;28;20241;-55
2021/06/30 10:09:35;;;;;;;2.80;2.60;;;22.20;1.00;;;;;;5070048;28;20580;-55
2021/06/30 10:12:07;;;;;;;2.60;2.40;;;22.30;1.00;;;;;;5070394;28;20525;-56
2021/06/30 10:14:33;;;;;;;2.63;2.43;;;22.30;1.00;;;;;;5068883;28;20472;-55
2021/06/30 10:16:59;;;;;;;4.50;2.80;;;24.00;1.00;;;;;;5070401;28;20437;-56
2021/06/30 10:19:25;;;;;;;2.87;2.50;;;22.20;1.00;;;;;;5070330;28;20426;-54
2021/06/30 10:22:04;;;;;;;2.70;2.50;;;22.20;1.00;;;;;;5070276;28;20479;-54
2021/06/30 10:24:29;;;;;;;2.73;2.53;;;22.20;1.00;;;;;;5067281;28;20444;-57
2021/06/30 10:26:56;;;;;;;2.80;2.57;;;22.30;1.00;;;;;;5070179;28;20419;-55
2021/06/30 10:29:29;;;;;;;2.53;2.33;;;22.40;1.00;;;;;;5069511;28;20231;-53
2021/06/30 10:32:04;;;;;;;2.13;1.90;;;22.30;1.00;;;;;;5070008;28;20437;-54
2021/06/30 10:34:37;;;;;;;2.77;2.10;;;22.10;1.00;;;;;;5068119;28;20887;-56
2021/06/30 10:37:15;;;;;;;2.30;2.10;;;22.10;1.00;;;;;;5069326;28;20774;-53
2021/06/30 10:39:47;;;;;;;2.30;2.10;;;22.50;1.00;;;;;;5069518;28;20448;-54
2021/06/30 10:42:31;;;;;;;2.90;1.73;;;22.70;1.00;;;;;;5067322;28;20811;-56
2021/06/30 10:44:59;;;;;;;1.93;1.83;;;22.80;1.00;;;;;;5069368;28;20495;-54
2021/06/30 10:47:41;;;;;;;4.60;1.43;;;22.70;1.00;;;;;;5069726;28;20896;-54
2021/06/30 10:50:19;;;;;;;2.23;2.03;;;22.60;1.00;;;;;;5069184;28;20766;-56
2021/06/30 10:53:03;;;;;;;2.13;2.00;;;22.80;1.00;;;;;;5069373;28;20764;-53
2021/06/30 10:55:38;;;;;;;2.80;1.90;;;22.90;1.00;;;;;;5067218;28;20437;-56
2021/06/30 10:58:19;;;;;;;1.70;1.60;;;23.00;1.00;;;;;;5069631;28;20548;-57
2021/06/30 11:00:44;;;;;;;3.70;2.20;;;22.90;1.00;;;;;;5070023;28;20416;-58
2021/06/30 11:03:30;;;;;;;2.70;1.83;;;23.00;1.00;;;;;;5068046;28;20457;-58
2021/06/30 11:06:13;;;;;;;4.33;1.80;;;23.00;1.00;;;;;;5069559;28;20180;-56
2021/06/30 11:08:49;;;;;;;2.23;2.03;;;23.10;1.00;;;;;;5069894;28;21820;-57
2021/06/30 11:11:19;;;;;;;3.87;1.80;;;23.60;1.00;;;;;;5070524;28;20518;-56
2021/06/30 11:14:00;;;;;;;1.70;1.60;;;23.30;1.00;;;;;;5070486;28;20441;-57
2021/06/30 11:16:38;;;;;;;1.60;1.50;;;23.10;1.00;;;;;;5070272;28;20764;-55
2021/06/30 11:19:44;;;;;;;2.40;1.80;;;23.30;1.00;;;;;;5069907;28;20444;-56
2021/06/30 11:22:22;;;;;;;2.77;1.63;;;23.60;1.00;;;;;;5070126;28;20449;-66
2021/06/30 11:24:48;;;;;;;2.03;1.50;;;24.20;1.00;;;;;;5071887;28;20445;-54
2021/06/30 11:27:24;;;;;;;1.70;1.60;;;24.10;1.00;;;;;;5073303;28;20530;-55
2021/06/30 11:30:08;;;;;;;1.37;1.20;;;24.10;1.00;;;;;;5072453;28;21005;-55
2021/06/30 11:32:40;;;;;;;2.07;1.87;;;24.00;1.00;;;;;;5071255;28;20433;-54
2021/06/30 11:35:08;;;;;;;2.40;1.60;;;23.90;1.00;;;;;;5071799;28;20456;-55
2021/06/30 11:37:34;;;;;;;1.70;1.53;;;23.80;1.00;;;;;;5072849;28;20927;-54
2021/06/30 11:40:07;;;;;;;2.37;1.50;;;23.80;1.00;;;;;;5072420;28;20444;-56
2021/06/30 11:42:41;;;;;;;2.27;1.50;;;23.90;1.00;;;;;;5072842;28;20190;-56
2021/06/30 11:45:20;;;;;;;1.50;1.40;;;24.10;1.00;;;;;;5072963;28;20791;-54
2021/06/30 11:47:50;;;;;;;1.90;1.80;;;24.20;1.00;;;;;;5073052;28;20786;-54
2021/06/30 11:50:18;;;;;;;2.43;1.70;;;24.40;1.00;;;;;;5071467;28;20433;-55
2021/06/30 11:52:47;;;;;;;1.53;1.40;;;24.90;1.00;;;;;;5072471;28;20433;-54
2021/06/30 11:55:13;;;;;;;2.00;1.50;;;25.00;1.00;;;;;;5072389;28;20774;-55
2021/06/30 11:57:56;;;;;;;1.63;1.50;;;25.10;1.00;;;;;;5072943;28;20451;-57
2021/06/30 12:00:23;;;;;;;2.00;1.53;;;25.20;1.00;;;;;;5071899;28;20434;-54
2021/06/30 12:02:51;;;;;;;3.40;1.40;;;25.30;1.00;;;;;;5071974;28;20525;-54
2021/06/30 12:05:17;;;;;;;2.07;1.30;;;25.20;1.00;;;;;;5071050;28;20415;-54
2021/06/30 12:07:45;;;;;;;1.60;1.50;;;25.10;1.00;;;;;;5072136;28;20433;-55
2021/06/30 12:10:11;;;;;;;1.30;1.20;;;24.90;1.00;;;;;;5071741;28;20464;-55
2021/06/30 12:12:37;;;;;;;1.60;1.40;;;24.60;1.00;;;;;;5072158;28;20438;-56
2021/06/30 12:15:08;;;;;;;1.77;1.17;;;24.70;1.00;;;;;;5071969;28;20437;-57
2021/06/30 12:17:35;;;;;;;1.33;1.20;;;24.70;1.00;;;;;;5071619;28;20443;-57
2021/06/30 12:20:03;;;;;;;1.30;1.20;;;24.40;1.00;;;;;;5071856;28;20442;-55
2021/06/30 12:22:37;;;;;;;2.20;1.47;;;24.40;1.00;;;;;;5071991;28;20873;-56
2021/06/30 12:25:30;;;;;;;4.10;1.60;;;24.50;1.00;;;;;;5070478;28;20507;-55
2021/06/30 12:28:05;;;;;;;4.40;1.43;;;24.20;1.00;;;;;;5067874;28;20543;-55
2021/06/30 12:30:36;;;;;;;2.67;1.40;;;23.90;1.00;;;;;;5069899;28;20580;-56
2021/06/30 12:33:08;;;;;;;1.40;1.30;;;23.50;1.00;;;;;;5070322;28;20491;-55
2021/06/30 12:35:40;;;;;;;1.10;1.00;;;23.50;1.00;;;;;;5070680;28;20434;-54
2021/06/30 12:38:09;;;;;;;2.50;1.57;;;23.20;1.00;;;;;;5071859;28;20468;-56
2021/06/30 12:40:36;;;;;;;2.53;1.57;;;23.40;1.00;;;;;;5071487;28;20905;-56
2021/06/30 12:43:16;;;;;;;2.53;1.50;;;23.40;1.00;;;;;;5069992;28;20529;-55
2021/06/30 12:45:44;;;;;;;1.47;1.37;;;23.40;1.00;;;;;;5071638;28;20441;-56
2021/06/30 12:48:13;;;;;;;3.50;1.47;;;23.40;1.00;;;;;;5071457;28;20503;-55
2021/06/30 12:50:47;;;;;;;5.43;1.50;;;23.40;1.00;;;;;;5070892;28;20413;-54
2021/06/30 12:53:16;;;;;;;2.10;1.80;;;23.70;1.00;;;;;;5071282;28;20907;-55
2021/06/30 12:55:56;;;;;;;1.73;1.63;;;23.80;1.00;;;;;;5070745;28;20451;-55
2021/06/30 12:58:24;;;;;;;1.47;1.37;;;24.10;1.00;;;;;;5070582;28;20439;-54